createdAt,value
2019-05-02T00:00:51.787Z,9.01
2019-05-02T00:01:51.758Z,9.02
2019-05-02T00:02:51.731Z,8.99
2019-05-02T00:03:51.703Z,8.98
2019-05-02T00:04:55.811Z,9.05
2019-05-02T00:05:51.647Z,8.96
2019-05-02T00:06:51.617Z,8.98
2019-05-02T00:07:53.787Z,9.08
2019-05-02T00:08:51.563Z,9.11
2019-05-02T00:09:51.535Z,9.11
2019-05-02T00:10:51.507Z,9.05
2019-05-02T00:11:58.541Z,9.08
2019-05-02T00:12:51.450Z,9.10
2019-05-02T00:13:51.421Z,9.10
2019-05-02T00:14:51.395Z,9.08
2019-05-02T00:15:51.366Z,9.10
2019-05-02T00:16:51.337Z,9.13
2019-05-02T00:17:51.310Z,9.08
2019-05-02T00:18:51.283Z,9.20
2019-05-02T00:19:51.346Z,9.17
2019-05-02T00:20:51.226Z,9.14
2019-05-02T00:21:51.203Z,9.13
2019-05-02T00:22:52.249Z,9.14
2019-05-02T00:23:51.144Z,9.14
2019-05-02T00:24:51.113Z,9.11
2019-05-02T00:25:52.593Z,9.11
2019-05-02T00:26:51.060Z,9.14
2019-05-02T00:27:51.029Z,9.08
2019-05-02T00:28:51.001Z,9.10
2019-05-02T00:29:53.877Z,9.08
2019-05-02T00:30:50.946Z,9.04
2019-05-02T00:31:50.918Z,9.02
2019-05-02T00:32:53.176Z,9.04
2019-05-02T00:33:50.864Z,8.98
2019-05-02T00:34:50.836Z,8.89
2019-05-02T00:35:50.808Z,9.04
2019-05-02T00:36:50.782Z,8.99
2019-05-02T00:37:50.750Z,8.96
2019-05-02T00:38:50.722Z,9.08
2019-05-02T00:39:50.695Z,9.05
2019-05-02T00:40:50.666Z,8.99
2019-05-02T00:41:50.640Z,9.01
2019-05-02T00:42:53.371Z,8.99
2019-05-02T00:43:50.584Z,9.08
2019-05-02T00:44:50.556Z,9.13
2019-05-02T00:45:50.528Z,9.14
2019-05-02T00:46:50.501Z,9.13
2019-05-02T00:47:50.473Z,9.10
2019-05-02T00:48:54.042Z,9.10
2019-05-02T00:49:50.418Z,9.11
2019-05-02T00:50:52.136Z,9.13
2019-05-02T00:51:50.361Z,9.04
2019-05-02T00:52:50.333Z,9.02
2019-05-02T00:53:50.327Z,9.08
2019-05-02T00:54:50.279Z,9.08
2019-05-02T00:55:50.250Z,9.11
2019-05-02T00:56:50.222Z,9.01
2019-05-02T00:57:50.959Z,9.05
2019-05-02T00:58:50.181Z,9.02
2019-05-02T00:59:50.142Z,9.04
2019-05-02T01:00:53.112Z,8.95
2019-05-02T01:01:50.084Z,9.01
2019-05-02T01:02:50.057Z,8.98
2019-05-02T01:03:52.119Z,8.98
2019-05-02T01:04:50.001Z,8.92
2019-05-02T01:05:49.977Z,8.87
2019-05-02T01:06:50.817Z,8.84
2019-05-02T01:07:49.917Z,8.84
2019-05-02T01:08:49.888Z,8.81
2019-05-02T01:09:49.866Z,8.81
2019-05-02T01:10:52.196Z,8.94
2019-05-02T01:11:49.804Z,8.76
2019-05-02T01:12:49.775Z,8.79
2019-05-02T01:13:50.396Z,8.80
2019-05-02T01:14:49.718Z,8.83
2019-05-02T01:15:49.692Z,8.83
2019-05-02T01:16:54.195Z,8.89
2019-05-02T01:17:49.635Z,8.86
2019-05-02T01:18:49.606Z,8.87
2019-05-02T01:19:51.471Z,8.79
2019-05-02T01:20:49.549Z,8.84
2019-05-02T01:21:49.519Z,8.83
2019-05-02T01:22:52.380Z,8.87
2019-05-02T01:23:49.464Z,8.84
2019-05-02T01:24:49.436Z,8.91
2019-05-02T01:25:52.722Z,8.74
2019-05-02T01:26:49.379Z,8.91
2019-05-02T01:27:49.353Z,8.83
2019-05-02T01:28:54.101Z,8.76
2019-05-02T01:29:49.293Z,8.81
2019-05-02T01:30:49.268Z,8.87
2019-05-02T01:31:49.903Z,8.84
2019-05-02T01:32:49.209Z,8.76
2019-05-02T01:33:49.180Z,8.86
2019-05-02T01:34:54.230Z,8.84
2019-05-02T01:35:49.125Z,8.89
2019-05-02T01:36:49.096Z,8.92
2019-05-02T01:37:50.954Z,8.84
2019-05-02T01:38:49.040Z,8.84
2019-05-02T01:39:49.013Z,8.86
2019-05-02T01:40:53.309Z,8.84
2019-05-02T01:41:48.967Z,8.86
2019-05-02T01:42:50.703Z,8.89
2019-05-02T01:43:48.900Z,8.87
2019-05-02T01:44:48.878Z,8.84
2019-05-02T01:45:48.844Z,8.73
2019-05-02T01:46:48.815Z,8.91
2019-05-02T01:47:48.788Z,8.83
2019-05-02T01:48:48.760Z,8.92
2019-05-02T01:49:52.015Z,8.76
2019-05-02T01:50:48.703Z,8.83
2019-05-02T01:51:49.335Z,8.91
2019-05-02T01:52:48.647Z,8.79
2019-05-02T01:53:48.618Z,8.84
2019-05-02T01:54:48.591Z,8.77
2019-05-02T01:55:52.086Z,8.95
2019-05-02T01:56:48.533Z,8.89
2019-05-02T01:57:48.506Z,8.86
2019-05-02T01:58:48.478Z,8.95
2019-05-02T01:59:48.451Z,8.77
2019-05-02T02:00:48.422Z,8.79
2019-05-02T02:01:48.394Z,8.79
2019-05-02T02:02:48.365Z,8.79
2019-05-02T02:03:48.339Z,8.77
2019-05-02T02:04:52.141Z,8.71
2019-05-02T02:05:48.283Z,8.80
2019-05-02T02:06:48.254Z,8.80
2019-05-02T02:07:50.811Z,8.76
2019-05-02T02:08:48.197Z,8.83
2019-05-02T02:09:48.168Z,8.83
2019-05-02T02:10:50.717Z,8.76
2019-05-02T02:11:48.113Z,8.80
2019-05-02T02:13:02.880Z,8.91
2019-05-02T02:13:48.057Z,8.73
2019-05-02T02:14:53.292Z,8.73
2019-05-02T02:15:48.001Z,8.87
2019-05-02T02:16:47.973Z,8.89
2019-05-02T02:17:51.412Z,8.83
2019-05-02T02:18:47.916Z,8.84
2019-05-02T02:19:47.889Z,8.91
2019-05-02T02:20:49.065Z,8.84
2019-05-02T02:21:47.835Z,8.84
2019-05-02T02:22:47.804Z,8.91
2019-05-02T02:23:49.751Z,8.92
2019-05-02T02:24:47.746Z,8.94
2019-05-02T02:25:47.718Z,8.84
2019-05-02T02:26:48.155Z,8.95
2019-05-02T02:27:47.663Z,8.98
2019-05-02T02:28:47.634Z,8.91
2019-05-02T02:29:47.605Z,8.91
2019-05-02T02:30:47.579Z,8.86
2019-05-02T02:31:48.678Z,8.94
2019-05-02T02:32:47.524Z,8.89
2019-05-02T02:33:49.699Z,8.86
2019-05-02T02:34:47.471Z,8.86
2019-05-02T02:35:50.358Z,8.89
2019-05-02T02:36:47.416Z,8.86
2019-05-02T02:37:53.331Z,8.95
2019-05-02T02:38:47.352Z,8.86
2019-05-02T02:39:48.522Z,8.86
2019-05-02T02:40:47.295Z,8.91
2019-05-02T02:41:52.120Z,8.87
2019-05-02T02:42:47.239Z,8.86
2019-05-02T02:43:47.210Z,8.84
2019-05-02T02:44:47.182Z,8.87
2019-05-02T02:45:51.841Z,8.81
2019-05-02T02:46:47.125Z,8.86
2019-05-02T02:47:53.034Z,8.86
2019-05-02T02:48:47.068Z,8.86
2019-05-02T02:49:47.039Z,8.84
2019-05-02T02:50:47.012Z,8.81
2019-05-02T02:51:46.986Z,8.89
2019-05-02T02:52:47.245Z,8.86
2019-05-02T02:53:46.927Z,8.89
2019-05-02T02:54:46.899Z,8.92
2019-05-02T02:55:46.872Z,8.86
2019-05-02T02:56:46.843Z,8.83
2019-05-02T02:57:46.814Z,8.81
2019-05-02T02:58:48.095Z,8.84
2019-05-02T02:59:46.759Z,8.83
2019-05-02T03:00:47.726Z,8.87
2019-05-02T03:01:46.701Z,8.84
2019-05-02T03:02:48.637Z,8.89
2019-05-02T03:03:46.645Z,8.74
2019-05-02T03:04:46.623Z,8.84
2019-05-02T03:05:46.592Z,8.91
2019-05-02T03:06:47.238Z,8.86
2019-05-02T03:07:46.531Z,8.83
2019-05-02T03:08:49.136Z,8.87
2019-05-02T03:09:46.475Z,8.84
2019-05-02T03:10:46.634Z,8.89
2019-05-02T03:11:46.420Z,8.83
2019-05-02T03:12:46.390Z,8.89
2019-05-02T03:13:52.686Z,8.77
2019-05-02T03:14:47.129Z,8.89
2019-05-02T03:15:46.306Z,8.83
2019-05-02T03:16:49.227Z,8.81
2019-05-02T03:17:46.250Z,8.87
2019-05-02T03:18:46.223Z,8.99
2019-05-02T03:19:46.195Z,8.80
2019-05-02T03:20:46.164Z,8.81
2019-05-02T03:21:46.136Z,8.87
2019-05-02T03:22:46.129Z,8.77
2019-05-02T03:23:46.082Z,8.91
2019-05-02T03:24:46.771Z,8.84
2019-05-02T03:25:50.368Z,8.84
2019-05-02T03:26:48.604Z,8.87
2019-05-02T03:27:45.970Z,8.89
2019-05-02T03:28:57.148Z,8.87
2019-05-02T03:29:45.911Z,8.84
2019-05-02T03:30:45.909Z,8.86
2019-05-02T03:31:45.857Z,8.89
2019-05-02T03:33:02.513Z,8.84
2019-05-02T03:33:54.704Z,8.87
2019-05-02T03:34:51.925Z,8.83
2019-05-02T03:35:49.153Z,8.92
2019-05-02T03:36:45.726Z,8.86
2019-05-02T03:37:51.496Z,8.86
2019-05-02T03:38:45.657Z,8.87
2019-05-02T03:39:49.522Z,8.89
2019-05-02T03:40:45.605Z,8.83
2019-05-02T03:41:45.575Z,8.87
2019-05-02T03:42:47.740Z,8.86
2019-05-02T03:43:45.518Z,8.81
2019-05-02T03:44:54.876Z,8.80
2019-05-02T03:45:45.464Z,8.74
2019-05-02T03:46:45.441Z,8.87
2019-05-02T03:47:46.553Z,8.87
2019-05-02T03:48:45.379Z,8.89
2019-05-02T03:49:48.650Z,8.89
2019-05-02T03:50:45.321Z,8.89
2019-05-02T03:51:45.296Z,8.89
2019-05-02T03:52:46.503Z,8.81
2019-05-02T03:53:45.242Z,8.92
2019-05-02T03:54:50.618Z,8.84
2019-05-02T03:55:45.181Z,8.84
2019-05-02T03:56:51.239Z,8.84
2019-05-02T03:57:45.121Z,8.84
2019-05-02T03:58:48.355Z,8.86
2019-05-02T03:59:45.067Z,8.91
2019-05-02T04:00:45.038Z,8.87
2019-05-02T04:01:45.009Z,8.94
2019-05-02T04:02:44.992Z,8.95
2019-05-02T04:03:44.956Z,8.95
2019-05-02T04:04:44.925Z,8.94
2019-05-02T04:05:44.897Z,8.95
2019-05-02T04:06:44.870Z,8.94
2019-05-02T04:07:44.842Z,8.87
2019-05-02T04:08:44.814Z,8.99
2019-05-02T04:09:44.783Z,8.91
2019-05-02T04:10:44.759Z,8.98
2019-05-02T04:11:44.729Z,8.98
2019-05-02T04:12:44.699Z,8.94
2019-05-02T04:13:44.672Z,8.94
2019-05-02T04:14:44.644Z,9.10
2019-05-02T04:15:44.618Z,8.98
2019-05-02T04:16:48.592Z,9.05
2019-05-02T04:17:44.558Z,8.98
2019-05-02T04:18:54.588Z,8.98
2019-05-02T04:19:44.504Z,9.01
2019-05-02T04:20:49.751Z,9.04
2019-05-02T04:21:44.446Z,9.01
2019-05-02T04:22:48.934Z,9.04
2019-05-02T04:23:44.394Z,9.05
2019-05-02T04:24:48.037Z,9.04
2019-05-02T04:25:44.334Z,9.11
2019-05-02T04:26:53.532Z,9.05
2019-05-02T04:27:44.283Z,9.08
2019-05-02T04:28:45.584Z,9.04
2019-05-02T04:29:44.222Z,9.02
2019-05-02T04:30:45.213Z,9.02
2019-05-02T04:31:44.167Z,9.11
2019-05-02T04:32:49.899Z,9.14
2019-05-02T04:33:44.108Z,9.15
2019-05-02T04:34:49.148Z,9.13
2019-05-02T04:35:44.057Z,9.21
2019-05-02T04:36:46.657Z,9.20
2019-05-02T04:37:43.998Z,9.18
2019-05-02T04:38:47.856Z,9.21
2019-05-02T04:39:43.944Z,9.17
2019-05-02T04:40:46.484Z,9.29
2019-05-02T04:41:43.892Z,9.35
2019-05-02T04:42:43.858Z,9.36
2019-05-02T04:43:54.611Z,9.32
2019-05-02T04:44:59.985Z,9.29
2019-05-02T04:45:53.160Z,9.29
2019-05-02T04:46:43.749Z,9.33
2019-05-02T04:47:54.579Z,9.36
2019-05-02T04:48:48.639Z,9.39
2019-05-02T04:49:43.665Z,9.40
2019-05-02T04:50:43.636Z,9.42
2019-05-02T04:51:50.897Z,9.39
2019-05-02T04:52:48.405Z,9.42
2019-05-02T04:53:45.407Z,9.51
2019-05-02T04:54:43.524Z,9.50
2019-05-02T04:55:43.498Z,9.43
2019-05-02T04:56:51.236Z,9.43
2019-05-02T04:57:47.042Z,9.48
2019-05-02T04:58:43.421Z,9.50
2019-05-02T04:59:43.387Z,9.46
2019-05-02T05:00:45.018Z,9.60
2019-05-02T05:01:50.833Z,9.43
2019-05-02T05:02:43.302Z,9.58
2019-05-02T05:03:43.275Z,9.43
2019-05-02T05:04:48.705Z,9.58
2019-05-02T05:05:43.219Z,9.60
2019-05-02T05:06:52.629Z,9.57
2019-05-02T05:07:46.106Z,9.56
2019-05-02T05:08:43.141Z,9.57
2019-05-02T05:09:47.889Z,9.53
2019-05-02T05:10:44.984Z,9.54
2019-05-02T05:11:43.054Z,9.58
2019-05-02T05:12:43.025Z,9.60
2019-05-02T05:13:43.004Z,9.60
2019-05-02T05:14:43.439Z,9.65
2019-05-02T05:15:48.652Z,9.64
2019-05-02T05:16:45.372Z,9.57
2019-05-02T05:17:42.891Z,9.53
2019-05-02T05:18:44.044Z,9.64
2019-05-02T05:19:42.833Z,9.68
2019-05-02T05:20:46.005Z,9.57
2019-05-02T05:21:42.787Z,9.64
2019-05-02T05:22:44.235Z,9.66
2019-05-02T05:23:42.727Z,9.58
2019-05-02T05:24:42.708Z,9.57
2019-05-02T05:25:42.667Z,9.69
2019-05-02T05:26:43.018Z,9.68
2019-05-02T05:27:42.615Z,9.56
2019-05-02T05:28:44.361Z,9.69
2019-05-02T05:29:42.558Z,9.68
2019-05-02T05:30:45.376Z,9.69
2019-05-02T05:31:42.504Z,9.71
2019-05-02T05:32:42.474Z,9.71
2019-05-02T05:33:42.447Z,9.71
2019-05-02T05:34:42.420Z,9.76
2019-05-02T05:35:43.207Z,9.65
2019-05-02T05:36:42.366Z,9.75
2019-05-02T05:37:43.394Z,9.72
2019-05-02T05:38:42.311Z,9.75
2019-05-02T05:39:43.211Z,9.71
2019-05-02T05:40:42.257Z,9.76
2019-05-02T05:41:42.817Z,9.81
2019-05-02T05:42:42.200Z,9.84
2019-05-02T05:43:44.775Z,9.83
2019-05-02T05:44:42.146Z,9.79
2019-05-02T05:45:53.401Z,9.81
2019-05-02T05:46:42.664Z,9.86
2019-05-02T05:47:42.064Z,9.91
2019-05-02T05:48:42.037Z,9.83
2019-05-02T05:49:42.009Z,9.87
2019-05-02T05:50:41.981Z,9.87
2019-05-02T05:51:41.955Z,9.87
2019-05-02T05:52:42.549Z,9.84
2019-05-02T05:53:41.900Z,9.87
2019-05-02T05:54:42.204Z,9.86
2019-05-02T05:55:41.845Z,9.91
2019-05-02T05:56:43.171Z,9.89
2019-05-02T05:57:41.792Z,9.89
2019-05-02T05:58:50.398Z,9.94
2019-05-02T05:59:41.738Z,9.96
2019-05-02T06:00:45.896Z,9.96
2019-05-02T06:01:41.681Z,9.94
2019-05-02T06:02:53.269Z,10.01
2019-05-02T06:03:44.706Z,10.04
2019-05-02T06:04:41.598Z,9.91
2019-05-02T06:05:42.296Z,9.91
2019-05-02T06:06:41.546Z,10.01
2019-05-02T06:07:44.821Z,10.02
2019-05-02T06:08:41.490Z,10.04
2019-05-02T06:09:41.468Z,9.99
2019-05-02T06:10:43.858Z,9.87
2019-05-02T06:11:41.409Z,9.99
2019-05-02T06:12:41.381Z,9.94
2019-05-02T06:13:43.094Z,10.02
2019-05-02T06:14:41.327Z,10.02
2019-05-02T06:15:41.300Z,10.02
2019-05-02T06:16:41.272Z,10.01
2019-05-02T06:17:41.246Z,9.99
2019-05-02T06:18:41.717Z,9.99
2019-05-02T06:19:41.193Z,9.97
2019-05-02T06:20:41.187Z,10.01
2019-05-02T06:21:45.062Z,10.07
2019-05-02T06:22:41.110Z,10.07
2019-05-02T06:23:41.558Z,10.05
2019-05-02T06:24:41.055Z,10.12
2019-05-02T06:25:42.674Z,10.15
2019-05-02T06:26:44.651Z,10.18
2019-05-02T06:27:40.974Z,10.11
2019-05-02T06:28:41.765Z,10.02
2019-05-02T06:29:40.922Z,10.04
2019-05-02T06:30:40.896Z,10.08
2019-05-02T06:31:43.150Z,9.96
2019-05-02T06:32:40.838Z,10.04
2019-05-02T06:33:40.813Z,10.07
2019-05-02T06:34:46.568Z,10.12
2019-05-02T06:35:40.761Z,10.12
2019-05-02T06:36:40.730Z,10.20
2019-05-02T06:37:41.019Z,10.14
2019-05-02T06:38:40.677Z,10.12
2019-05-02T06:39:40.653Z,10.25
2019-05-02T06:40:44.795Z,10.25
2019-05-02T06:41:40.595Z,10.32
2019-05-02T06:42:40.571Z,10.32
2019-05-02T06:43:41.262Z,10.29
2019-05-02T06:44:40.514Z,10.33
2019-05-02T06:45:40.487Z,10.38
2019-05-02T06:46:40.460Z,10.38
2019-05-02T06:47:41.663Z,10.40
2019-05-02T06:48:40.406Z,10.45
2019-05-02T06:49:40.384Z,10.47
2019-05-02T06:50:40.640Z,10.60
2019-05-02T06:51:40.388Z,10.63
2019-05-02T06:52:40.299Z,10.73
2019-05-02T06:53:41.409Z,10.67
2019-05-02T06:54:40.245Z,10.60
2019-05-02T06:55:40.224Z,10.67
2019-05-02T06:56:43.003Z,10.74
2019-05-02T06:57:40.164Z,10.86
2019-05-02T06:58:42.033Z,10.82
2019-05-02T06:59:40.113Z,10.85
2019-05-02T07:00:56.663Z,10.86
2019-05-02T07:01:40.058Z,10.97
2019-05-02T07:02:40.031Z,11.02
2019-05-02T07:03:41.251Z,11.09
2019-05-02T07:04:39.979Z,11.11
2019-05-02T07:05:39.954Z,10.94
2019-05-02T07:06:50.149Z,11.11
2019-05-02T07:07:39.901Z,11.17
2019-05-02T07:08:39.908Z,11.10
2019-05-02T07:09:41.542Z,11.10
2019-05-02T07:10:44.949Z,11.18
2019-05-02T07:11:40.969Z,11.21
2019-05-02T07:12:39.768Z,11.28
2019-05-02T07:13:41.966Z,11.27
2019-05-02T07:14:39.716Z,11.37
2019-05-02T07:15:40.563Z,11.36
2019-05-02T07:16:39.664Z,11.39
2019-05-02T07:17:39.759Z,11.36
2019-05-02T07:18:41.973Z,11.27
2019-05-02T07:19:39.585Z,11.25
2019-05-02T07:20:40.655Z,11.27
2019-05-02T07:21:39.535Z,11.43
2019-05-02T07:22:40.871Z,11.40
2019-05-02T07:23:39.487Z,11.57
2019-05-02T07:24:39.455Z,11.58
2019-05-02T07:25:44.025Z,11.60
2019-05-02T07:26:39.403Z,11.67
2019-05-02T07:27:39.511Z,11.69
2019-05-02T07:28:40.453Z,11.75
2019-05-02T07:29:39.325Z,11.58
2019-05-02T07:30:39.302Z,11.65
2019-05-02T07:31:43.063Z,11.69
2019-05-02T07:32:39.249Z,11.70
2019-05-02T07:33:39.229Z,11.79
2019-05-02T07:34:39.200Z,11.90
2019-05-02T07:35:39.173Z,11.90
2019-05-02T07:36:39.156Z,12.01
2019-05-02T07:37:39.123Z,12.09
2019-05-02T07:38:39.096Z,12.05
2019-05-02T07:39:40.923Z,12.24
2019-05-02T07:40:39.044Z,12.12
2019-05-02T07:41:39.020Z,12.21
2019-05-02T07:42:41.883Z,12.31
2019-05-02T07:43:38.969Z,12.28
2019-05-02T07:44:38.943Z,12.34
2019-05-02T07:45:40.237Z,12.39
2019-05-02T07:46:51.174Z,12.23
2019-05-02T07:47:40.166Z,12.29
2019-05-02T07:48:38.887Z,12.32
2019-05-02T07:49:38.818Z,12.46
2019-05-02T07:50:41.202Z,12.52
2019-05-02T07:51:38.768Z,12.67
2019-05-02T07:52:41.112Z,12.70
2019-05-02T07:53:38.718Z,12.54
2019-05-02T07:54:38.693Z,12.56
2019-05-02T07:55:40.686Z,12.49
2019-05-02T07:56:38.643Z,12.39
2019-05-02T07:57:38.620Z,12.39
2019-05-02T07:58:46.687Z,12.31
2019-05-02T07:59:38.571Z,12.27
2019-05-02T08:00:38.574Z,12.56
2019-05-02T08:01:38.524Z,13.03
2019-05-02T08:02:38.499Z,13.17
2019-05-02T08:03:38.479Z,13.28
2019-05-02T08:04:38.447Z,13.20
2019-05-02T08:05:38.424Z,13.10
2019-05-02T08:06:40.059Z,13.00
2019-05-02T08:07:38.374Z,12.85
2019-05-02T08:08:38.355Z,12.90
2019-05-02T08:09:39.186Z,12.92
2019-05-02T08:10:38.300Z,12.83
2019-05-02T08:11:38.537Z,12.62
2019-05-02T08:12:38.253Z,12.45
2019-05-02T08:13:38.229Z,12.28
2019-05-02T08:14:38.205Z,12.32
2019-05-02T08:15:38.241Z,12.16
2019-05-02T08:16:38.156Z,12.29
2019-05-02T08:17:38.133Z,12.39
2019-05-02T08:18:38.109Z,12.67
2019-05-02T08:19:41.705Z,12.64
2019-05-02T08:20:38.058Z,12.75
2019-05-02T08:21:38.034Z,12.92
2019-05-02T08:22:38.016Z,13.00
2019-05-02T08:23:37.985Z,13.03
2019-05-02T08:24:39.213Z,13.23
2019-05-02T08:25:41.560Z,13.39
2019-05-02T08:26:37.912Z,13.41
2019-05-02T08:27:37.888Z,13.25
2019-05-02T08:28:37.865Z,13.22
2019-05-02T08:29:37.841Z,13.14
2019-05-02T08:30:40.401Z,13.04
2019-05-02T08:31:37.792Z,13.03
2019-05-02T08:32:37.768Z,13.12
2019-05-02T08:33:37.745Z,13.08
2019-05-02T08:34:37.720Z,13.10
2019-05-02T08:35:37.699Z,12.95
2019-05-02T08:36:37.671Z,13.01
2019-05-02T08:37:41.119Z,13.08
2019-05-02T08:38:37.624Z,13.15
2019-05-02T08:39:37.604Z,13.25
2019-05-02T08:40:37.576Z,13.41
2019-05-02T08:41:37.552Z,13.33
2019-05-02T08:42:37.528Z,13.25
2019-05-02T08:43:40.280Z,13.10
2019-05-02T08:44:50.331Z,13.07
2019-05-02T08:45:38.164Z,13.05
2019-05-02T08:46:37.433Z,13.17
2019-05-02T08:47:37.411Z,13.26
2019-05-02T08:48:41.873Z,13.30
2019-05-02T08:49:37.363Z,13.28
2019-05-02T08:50:37.337Z,13.29
2019-05-02T08:51:37.314Z,13.11
2019-05-02T08:52:42.368Z,13.07
2019-05-02T08:53:37.265Z,12.97
2019-05-02T08:54:37.241Z,12.83
2019-05-02T08:55:41.346Z,12.97
2019-05-02T08:56:37.194Z,13.04
2019-05-02T08:57:37.170Z,12.95
2019-05-02T08:58:37.145Z,13.00
2019-05-02T08:59:37.122Z,13.00
2019-05-02T09:00:39.311Z,13.07
2019-05-02T09:01:37.074Z,13.03
2019-05-02T09:02:41.705Z,13.00
2019-05-02T09:03:54.743Z,13.08
2019-05-02T09:04:37.000Z,13.10
2019-05-02T09:05:45.638Z,13.10
2019-05-02T09:06:36.955Z,13.00
2019-05-02T09:07:39.065Z,12.95
2019-05-02T09:08:36.905Z,13.00
2019-05-02T09:09:36.881Z,13.07
2019-05-02T09:10:37.049Z,12.96
2019-05-02T09:11:36.832Z,12.97
2019-05-02T09:12:41.393Z,12.95
2019-05-02T09:13:36.785Z,12.89
2019-05-02T09:14:36.761Z,12.95
2019-05-02T09:15:40.364Z,12.93
2019-05-02T09:16:36.718Z,12.82
2019-05-02T09:17:38.961Z,12.90
2019-05-02T09:18:41.055Z,12.90
2019-05-02T09:19:36.641Z,12.97
2019-05-02T09:20:36.615Z,13.08
2019-05-02T09:21:36.593Z,13.07
2019-05-02T09:22:36.569Z,13.19
2019-05-02T09:23:37.222Z,13.19
2019-05-02T09:24:36.519Z,13.17
2019-05-02T09:25:36.496Z,13.19
2019-05-02T09:26:38.621Z,13.28
2019-05-02T09:27:36.447Z,13.46
2019-05-02T09:28:36.423Z,13.49
2019-05-02T09:29:37.287Z,13.32
2019-05-02T09:30:36.376Z,13.29
2019-05-02T09:31:36.802Z,13.32
2019-05-02T09:32:37.232Z,13.36
2019-05-02T09:33:41.144Z,13.15
2019-05-02T09:34:36.282Z,13.03
2019-05-02T09:35:36.258Z,12.89
2019-05-02T09:36:38.187Z,13.01
2019-05-02T09:37:36.209Z,13.07
2019-05-02T09:38:36.187Z,13.07
2019-05-02T09:39:36.637Z,13.19
2019-05-02T09:40:36.137Z,13.30
2019-05-02T09:41:36.444Z,13.23
2019-05-02T09:42:36.089Z,13.30
2019-05-02T09:43:39.062Z,13.19
2019-05-02T09:44:36.041Z,13.28
2019-05-02T09:45:37.588Z,13.28
2019-05-02T09:46:35.998Z,13.28
2019-05-02T09:47:53.198Z,13.28
2019-05-02T09:48:35.947Z,13.07
2019-05-02T09:49:35.922Z,13.00
2019-05-02T09:50:38.300Z,13.01
2019-05-02T09:51:35.874Z,12.97
2019-05-02T09:52:39.538Z,13.00
2019-05-02T09:53:35.827Z,13.11
2019-05-02T09:54:37.019Z,13.05
2019-05-02T09:55:35.779Z,13.12
2019-05-02T09:56:35.754Z,13.44
2019-05-02T09:57:35.730Z,13.59
2019-05-02T09:58:35.706Z,13.70
2019-05-02T09:59:35.683Z,13.81
2019-05-02T10:00:36.336Z,13.79
2019-05-02T10:01:35.640Z,13.70
2019-05-02T10:02:35.614Z,13.54
2019-05-02T10:03:35.588Z,13.36
2019-05-02T10:04:35.671Z,13.20
2019-05-02T10:05:35.545Z,13.22
2019-05-02T10:06:35.516Z,13.29
2019-05-02T10:07:35.494Z,13.26
2019-05-02T10:08:38.329Z,13.41
2019-05-02T10:09:35.445Z,13.45
2019-05-02T10:10:37.308Z,13.55
2019-05-02T10:11:35.403Z,13.67
2019-05-02T10:12:35.373Z,13.57
2019-05-02T10:13:35.349Z,13.48
2019-05-02T10:14:35.326Z,13.41
2019-05-02T10:15:35.445Z,13.49
2019-05-02T10:16:35.278Z,13.26
2019-05-02T10:17:37.459Z,13.25
2019-05-02T10:18:35.237Z,13.19
2019-05-02T10:19:35.220Z,13.26
2019-05-02T10:20:36.506Z,13.17
2019-05-02T10:21:35.159Z,13.08
2019-05-02T10:22:39.481Z,13.15
2019-05-02T10:23:35.112Z,13.29
2019-05-02T10:24:35.087Z,13.52
2019-05-02T10:25:38.483Z,13.45
2019-05-02T10:26:35.040Z,13.66
2019-05-02T10:27:38.476Z,13.89
2019-05-02T10:28:34.992Z,13.92
2019-05-02T10:29:34.968Z,13.92
2019-05-02T10:30:36.086Z,13.67
2019-05-02T10:31:37.684Z,13.78
2019-05-02T10:32:34.898Z,13.66
2019-05-02T10:33:37.637Z,13.59
2019-05-02T10:34:34.851Z,13.54
2019-05-02T10:35:40.384Z,13.59
2019-05-02T10:36:34.867Z,13.67
2019-05-02T10:37:38.251Z,13.71
2019-05-02T10:38:34.761Z,13.69
2019-05-02T10:39:37.858Z,13.69
2019-05-02T10:40:34.709Z,13.63
2019-05-02T10:41:39.587Z,13.54
2019-05-02T10:42:34.663Z,13.67
2019-05-02T10:43:34.641Z,13.69
2019-05-02T10:44:36.522Z,13.55
2019-05-02T10:45:34.591Z,13.51
2019-05-02T10:46:37.786Z,13.33
2019-05-02T10:47:36.300Z,13.33
2019-05-02T10:48:34.519Z,13.33
2019-05-02T10:49:34.496Z,13.36
2019-05-02T10:50:34.474Z,13.28
2019-05-02T10:51:34.459Z,13.17
2019-05-02T10:52:34.431Z,13.08
2019-05-02T10:53:34.402Z,13.07
2019-05-02T10:54:37.570Z,13.04
2019-05-02T10:55:34.361Z,12.95
2019-05-02T10:56:34.341Z,12.89
2019-05-02T10:57:34.307Z,12.92
2019-05-02T10:58:35.812Z,13.08
2019-05-02T10:59:34.259Z,13.25
2019-05-02T11:00:34.238Z,13.33
2019-05-02T11:01:34.212Z,13.36
2019-05-02T11:02:34.189Z,13.38
2019-05-02T11:03:38.036Z,13.17
2019-05-02T11:04:34.139Z,13.20
2019-05-02T11:05:37.226Z,13.15
2019-05-02T11:06:37.132Z,13.14
2019-05-02T11:07:34.069Z,13.22
2019-05-02T11:08:36.848Z,13.15
2019-05-02T11:09:34.022Z,13.20
2019-05-02T11:10:33.996Z,13.42
2019-05-02T11:11:33.975Z,13.45
2019-05-02T11:12:41.851Z,13.52
2019-05-02T11:13:33.926Z,13.52
2019-05-02T11:14:33.902Z,13.38
2019-05-02T11:15:33.878Z,13.15
2019-05-02T11:16:33.855Z,13.05
2019-05-02T11:17:36.168Z,13.11
2019-05-02T11:18:42.028Z,12.96
2019-05-02T11:19:33.784Z,12.86
2019-05-02T11:20:33.759Z,12.89
2019-05-02T11:21:33.735Z,12.86
2019-05-02T11:22:33.712Z,12.86
2019-05-02T11:23:33.730Z,12.77
2019-05-02T11:24:33.676Z,12.70
2019-05-02T11:25:33.639Z,12.57
2019-05-02T11:26:33.618Z,12.57
2019-05-02T11:27:33.592Z,12.64
2019-05-02T11:28:33.567Z,12.75
2019-05-02T11:29:33.548Z,12.75
2019-05-02T11:30:33.519Z,13.00
2019-05-02T11:31:33.496Z,13.03
2019-05-02T11:32:33.471Z,13.26
2019-05-02T11:33:33.447Z,13.51
2019-05-02T11:34:33.423Z,13.69
2019-05-02T11:35:33.400Z,13.78
2019-05-02T11:36:33.378Z,13.84
2019-05-02T11:37:33.359Z,13.95
2019-05-02T11:38:33.714Z,14.21
2019-05-02T11:39:43.162Z,14.37
2019-05-02T11:40:33.281Z,14.50
2019-05-02T11:41:33.256Z,14.40
2019-05-02T11:42:33.234Z,14.25
2019-05-02T11:43:37.124Z,14.04
2019-05-02T11:44:33.186Z,14.07
2019-05-02T11:45:33.164Z,14.07
2019-05-02T11:46:33.184Z,14.03
2019-05-02T11:47:33.118Z,14.27
2019-05-02T11:48:33.093Z,14.28
2019-05-02T11:49:33.074Z,14.46
2019-05-02T11:50:35.457Z,14.72
2019-05-02T11:51:33.025Z,14.88
2019-05-02T11:52:37.339Z,15.16
2019-05-02T11:53:32.978Z,15.49
2019-05-02T11:54:32.956Z,15.32
2019-05-02T11:55:32.933Z,15.43
2019-05-02T11:56:33.145Z,15.49
2019-05-02T11:57:33.251Z,15.19
2019-05-02T11:58:32.864Z,14.78
2019-05-02T11:59:32.842Z,14.86
2019-05-02T12:00:32.818Z,15.21
2019-05-02T12:01:37.157Z,15.86
2019-05-02T12:02:32.773Z,16.96
2019-05-02T12:03:35.781Z,16.73
2019-05-02T12:04:32.729Z,16.67
2019-05-02T12:05:35.706Z,16.53
2019-05-02T12:06:33.245Z,16.61
2019-05-02T12:07:32.665Z,16.35
2019-05-02T12:08:32.641Z,16.04
2019-05-02T12:09:32.619Z,15.71
2019-05-02T12:10:36.547Z,15.31
2019-05-02T12:11:32.576Z,15.34
2019-05-02T12:12:36.322Z,15.31
2019-05-02T12:13:32.533Z,15.35
2019-05-02T12:14:36.242Z,15.43
2019-05-02T12:15:32.490Z,15.47
2019-05-02T12:16:32.466Z,15.32
2019-05-02T12:17:32.666Z,15.49
2019-05-02T12:18:32.656Z,15.86
2019-05-02T12:19:32.399Z,15.94
2019-05-02T12:20:33.892Z,16.71
2019-05-02T12:21:32.656Z,17.70
2019-05-02T12:22:32.544Z,17.89
2019-05-02T12:23:32.313Z,17.87
2019-05-02T12:24:36.481Z,17.48
2019-05-02T12:25:32.860Z,16.93
2019-05-02T12:26:32.546Z,16.91
2019-05-02T12:27:32.229Z,16.33
2019-05-02T12:28:32.468Z,16.12
2019-05-02T12:29:33.471Z,15.80
2019-05-02T12:30:36.043Z,15.72
2019-05-02T12:31:32.773Z,15.47
2019-05-02T12:32:33.394Z,15.39
2019-05-02T12:33:32.101Z,15.41
2019-05-02T12:34:32.581Z,15.54
2019-05-02T12:35:32.241Z,15.64
2019-05-02T12:36:33.299Z,15.89
2019-05-02T12:37:32.685Z,15.93
2019-05-02T12:38:32.437Z,15.96
2019-05-02T12:39:31.968Z,15.78
2019-05-02T12:40:32.576Z,15.69
2019-05-02T12:41:33.166Z,15.74
2019-05-02T12:42:33.070Z,15.69
2019-05-02T12:43:31.973Z,15.75
2019-05-02T12:44:31.918Z,15.65
2019-05-02T12:45:33.554Z,15.80
2019-05-02T12:46:31.978Z,15.87
2019-05-02T12:47:31.957Z,15.93
2019-05-02T12:48:32.797Z,16.08
2019-05-02T12:49:32.465Z,15.89
2019-05-02T12:50:32.211Z,15.83
2019-05-02T12:51:32.163Z,15.72
2019-05-02T12:52:32.104Z,15.80
2019-05-02T12:53:32.615Z,15.69
2019-05-02T12:54:32.560Z,15.65
2019-05-02T12:55:32.610Z,15.68
2019-05-02T12:56:32.420Z,15.47
2019-05-02T12:57:32.112Z,15.59
2019-05-02T12:58:32.526Z,15.49
2019-05-02T12:59:32.181Z,15.23
2019-05-02T13:00:31.980Z,15.23
2019-05-02T13:01:33.002Z,15.17
2019-05-02T13:02:32.109Z,15.27
2019-05-02T13:03:31.796Z,15.29
2019-05-02T13:04:32.293Z,15.31